Time;durP1;ratioP1;P1;durP2;ratioP2;P2;SDS_P1;SDS_P2;PMS_P1;PMS_P2;Temp;Humidity;BMP_temperature;BMP_pressure;BME280_temperature;BME280_humidity;BME280_pressure;Samples;Min_cycle;Max_cycle;Signal;HPM_P1;HPM_P2
2021/11/13 00:00:34;;;;;;;26.63;24.77;;;;;;;;;;5060728;28;20616;-89
2021/11/13 00:03:01;;;;;;;25.37;23.67;;;;;;;;;;5056516;28;20192;-90
2021/11/13 00:05:28;;;;;;;27.77;25.70;;;;;;;;;;5056049;28;20415;-90
2021/11/13 00:07:56;;;;;;;25.90;24.00;;;;;;;;;;5054821;28;20442;-90
2021/11/13 00:10:27;;;;;;;25.85;24.02;;;;;;;;;;5054218;28;20193;-90
2021/11/13 00:12:55;;;;;;;27.30;25.25;;;;;;;;;;5053811;28;20203;-90
2021/11/13 00:15:23;;;;;;;27.10;25.10;;;;;;;;;;5053717;28;20195;-90
2021/11/13 00:17:51;;;;;;;28.77;26.50;;;;;;;;;;5053451;28;20461;-90
2021/11/13 00:20:19;;;;;;;26.43;24.63;;;;;;;;;;5053536;28;20482;-89
2021/11/13 00:22:47;;;;;;;28.00;26.00;;;;;;;;;;5054006;28;20446;-89
2021/11/13 00:25:14;;;;;;;27.90;25.83;;;;;;;;;;5053595;28;20967;-89
2021/11/13 00:27:44;;;;;;;27.15;25.15;;;;;;;;;;5053546;28;20556;-90
2021/11/13 00:30:12;;;;;;;26.93;25.10;;;;;;;;;;5054530;28;20607;-90
2021/11/13 00:32:40;;;;;;;25.17;23.40;;;;;;;;;;5039760;28;20446;-89
2021/11/13 00:35:08;;;;;;;26.42;24.58;;;;;;;;;;5057358;28;20499;-90
2021/11/13 00:37:36;;;;;;;25.33;23.60;;;;;;;;;;5057313;28;20193;-90
2021/11/13 00:40:03;;;;;;;26.00;24.20;;;;;;;;;;5057590;28;20218;-90
2021/11/13 00:42:30;;;;;;;27.80;25.60;;;;;;;;;;5057634;28;20430;-89
2021/11/13 00:44:59;;;;;;;25.53;23.83;;;;;;;;;;5057336;28;20405;-90
2021/11/13 00:47:27;;;;;;;26.97;25.00;;;;;;;;;;5057203;28;20435;-89
2021/11/13 00:49:54;;;;;;;27.77;25.67;;;;;;;;;;5056974;28;20487;-90
2021/11/13 00:52:21;;;;;;;24.30;22.70;;;;;;;;;;5057233;28;20200;-90
2021/11/13 00:54:49;;;;;;;27.87;25.77;;;;;;;;;;5059649;28;20201;-90
2021/11/13 00:57:16;;;;;;;26.03;24.23;;;;;;;;;;5057075;28;20987;-90
2021/11/13 00:59:44;;;;;;;25.55;23.80;;;;;;;;;;5056745;28;20492;-90
2021/11/13 01:02:13;;;;;;;25.67;24.07;;;;;;;;;;5057296;28;20189;-90
2021/11/13 01:04:41;;;;;;;26.17;24.17;;;;;;;;;;5057119;28;20442;-90
2021/11/13 01:07:09;;;;;;;26.05;24.15;;;;;;;;;;5057206;28;20187;-89
2021/11/13 01:09:38;;;;;;;24.02;22.42;;;;;;;;;;5056564;28;20195;-90
2021/11/13 01:12:06;;;;;;;25.47;23.73;;;;;;;;;;5056669;28;20218;-89
2021/11/13 01:14:39;;;;;;;24.73;22.93;;;;;;;;;;5056925;28;20439;-90
2021/11/13 01:17:07;;;;;;;27.37;25.37;;;;;;;;;;5056497;28;20469;-89
2021/11/13 01:19:36;;;;;;;25.80;23.97;;;;;;;;;;5056361;28;20500;-89
2021/11/13 01:22:03;;;;;;;22.00;20.60;;;;;;;;;;5056551;28;20446;-89
2021/11/13 01:24:31;;;;;;;26.03;23.93;;;;;;;;;;5039369;28;20450;-90
2021/11/13 01:26:58;;;;;;;25.63;23.77;;;;;;;;;;5039463;28;20412;-90
2021/11/13 01:29:25;;;;;;;26.02;24.08;;;;;;;;;;5056764;28;20549;-89
2021/11/13 01:31:53;;;;;;;26.63;24.90;;;;;;;;;;5056636;28;20188;-89
2021/11/13 01:34:20;;;;;;;25.93;24.13;;;;;;;;;;5055822;28;20921;-90
2021/11/13 01:36:49;;;;;;;24.93;23.23;;;;;;;;;;5060359;28;20444;-89
2021/11/13 01:39:16;;;;;;;25.57;23.73;;;;;;;;;;5056462;28;20481;-89
2021/11/13 01:41:44;;;;;;;24.80;22.90;;;;;;;;;;5055845;28;20426;-90
2021/11/13 01:44:12;;;;;;;25.40;23.60;;;;;;;;;;5056426;28;20417;-89
2021/11/13 01:46:39;;;;;;;25.07;23.13;;;;;;;;;;5056377;28;20199;-90
2021/11/13 01:49:08;;;;;;;26.95;24.90;;;;;;;;;;5056227;28;20476;-89
2021/11/13 01:51:36;;;;;;;25.60;23.88;;;;;;;;;;5056059;28;20199;-90
2021/11/13 01:54:07;;;;;;;25.85;23.95;;;;;;;;;;5055760;28;20187;-90
2021/11/13 01:56:34;;;;;;;24.67;23.08;;;;;;;;;;5056038;28;20199;-89
2021/11/13 01:59:03;;;;;;;26.33;24.33;;;;;;;;;;5055982;28;20204;-89
2021/11/13 02:01:30;;;;;;;25.10;23.30;;;;;;;;;;5056255;28;20272;-89
2021/11/13 02:03:58;;;;;;;25.10;23.30;;;;;;;;;;5055835;28;20450;-90
2021/11/13 02:06:26;;;;;;;25.23;23.43;;;;;;;;;;5055583;28;20204;-89
2021/11/13 02:08:53;;;;;;;25.03;23.43;;;;;;;;;;5055821;28;20457;-90
2021/11/13 02:11:23;;;;;;;24.50;22.80;;;;;;;;;;5038431;28;20458;-89
2021/11/13 02:13:50;;;;;;;24.77;23.00;;;;;;;;;;5055810;28;20203;-88
2021/11/13 02:16:18;;;;;;;25.13;23.30;;;;;;;;;;5055627;28;20453;-89
2021/11/13 02:18:45;;;;;;;24.45;22.75;;;;;;;;;;5055746;28;20220;-89
2021/11/13 02:21:15;;;;;;;25.50;23.70;;;;;;;;;;5037973;28;20235;-89
2021/11/13 02:23:44;;;;;;;25.40;23.50;;;;;;;;;;5055725;28;20437;-88
2021/11/13 02:26:12;;;;;;;25.50;23.50;;;;;;;;;;5056163;28;20417;-89
2021/11/13 02:28:39;;;;;;;27.05;25.25;;;;;;;;;;5056384;28;20663;-88
2021/11/13 02:31:07;;;;;;;24.67;22.97;;;;;;;;;;5058736;28;20210;-89
2021/11/13 02:33:35;;;;;;;25.98;24.17;;;;;;;;;;5057743;28;20453;-87
2021/11/13 02:36:03;;;;;;;25.15;23.35;;;;;;;;;;5055927;28;20641;-88
2021/11/13 02:38:33;;;;;;;25.05;23.17;;;;;;;;;;5055548;28;20198;-87
2021/11/13 02:41:02;;;;;;;25.42;23.50;;;;;;;;;;5058393;28;20216;-88
2021/11/13 02:43:30;;;;;;;26.37;24.40;;;;;;;;;;5055619;28;20653;-88
2021/11/13 02:45:58;;;;;;;25.45;23.63;;;;;;;;;;5054898;28;20418;-88
2021/11/13 02:48:26;;;;;;;26.27;24.33;;;;;;;;;;5054942;28;20199;-88
2021/11/13 02:50:54;;;;;;;25.85;24.02;;;;;;;;;;5054588;28;20477;-87
2021/11/13 02:53:24;;;;;;;26.00;24.00;;;;;;;;;;5054377;28;20211;-88
2021/11/13 02:55:54;;;;;;;25.55;23.75;;;;;;;;;;5054391;28;20210;-88
2021/11/13 02:58:21;;;;;;;25.40;23.60;;;;;;;;;;5055113;28;20192;-88
2021/11/13 03:00:50;;;;;;;26.17;24.38;;;;;;;;;;5054698;28;20478;-88
2021/11/13 03:03:17;;;;;;;25.30;23.60;;;;;;;;;;5054843;28;20192;-88
2021/11/13 03:05:48;;;;;;;24.30;22.50;;;;;;;;;;5054924;28;20474;-89
2021/11/13 03:08:20;;;;;;;24.33;22.73;;;;;;;;;;5054940;28;20804;-88
2021/11/13 03:10:47;;;;;;;24.60;22.90;;;;;;;;;;5054708;28;20469;-88
2021/11/13 03:13:17;;;;;;;24.40;22.80;;;;;;;;;;5054862;28;20546;-88
2021/11/13 03:15:44;;;;;;;24.27;22.60;;;;;;;;;;5054514;28;21159;-88
2021/11/13 03:18:11;;;;;;;25.63;23.77;;;;;;;;;;5054245;28;20720;-87
2021/11/13 03:20:39;;;;;;;25.90;24.20;;;;;;;;;;5054770;28;20579;-88
2021/11/13 03:23:06;;;;;;;24.23;22.63;;;;;;;;;;5036879;28;20453;-88
2021/11/13 03:25:36;;;;;;;24.92;23.23;;;;;;;;;;5053943;28;20202;-88
2021/11/13 03:28:05;;;;;;;25.30;23.53;;;;;;;;;;5054291;28;20213;-88
2021/11/13 03:30:33;;;;;;;25.58;23.58;;;;;;;;;;5054357;28;20562;-88
2021/11/13 03:33:01;;;;;;;27.25;24.98;;;;;;;;;;5054357;28;20199;-88
2021/11/13 03:35:30;;;;;;;25.13;23.42;;;;;;;;;;5054852;28;20208;-88
2021/11/13 03:37:57;;;;;;;26.38;24.33;;;;;;;;;;5053916;28;20206;-88
2021/11/13 03:40:25;;;;;;;25.30;22.90;;;;;;;;;;5054123;28;20238;-87
2021/11/13 03:42:52;;;;;;;27.63;25.55;;;;;;;;;;5054438;28;20803;-88
2021/11/13 03:45:20;;;;;;;23.93;22.33;;;;;;;;;;5037810;28;20204;-88
2021/11/13 03:47:49;;;;;;;25.23;23.58;;;;;;;;;;5036668;28;20487;-90
2021/11/13 03:50:16;;;;;;;23.80;22.30;;;;;;;;;;5054873;28;20714;-90
2021/11/13 03:52:44;;;;;;;25.70;23.73;;;;;;;;;;5055926;28;20453;-90
2021/11/13 03:55:15;;;;;;;24.47;22.87;;;;;;;;;;5061688;28;20412;-90
2021/11/13 03:57:43;;;;;;;23.90;22.30;;;;;;;;;;5054403;28;20497;-90
2021/11/13 04:00:11;;;;;;;25.53;23.70;;;;;;;;;;5054577;28;20481;-90
2021/11/13 04:02:40;;;;;;;25.43;23.70;;;;;;;;;;5054857;28;20791;-90
2021/11/13 04:05:09;;;;;;;24.50;22.80;;;;;;;;;;5054812;28;20990;-89
2021/11/13 04:07:37;;;;;;;22.60;21.23;;;;;;;;;;5053375;28;20930;-90
2021/11/13 04:10:06;;;;;;;24.33;22.67;;;;;;;;;;5054555;28;20199;-90
2021/11/13 04:12:34;;;;;;;25.20;23.45;;;;;;;;;;5054097;28;20991;-90
2021/11/13 04:15:02;;;;;;;24.95;22.95;;;;;;;;;;5053897;28;20245;-90
2021/11/13 04:17:29;;;;;;;24.80;23.20;;;;;;;;;;5054450;28;20229;-89
2021/11/13 04:19:57;;;;;;;24.60;23.10;;;;;;;;;;5054295;28;20198;-90
2021/11/13 04:22:26;;;;;;;25.20;23.50;;;;;;;;;;5054617;28;20582;-91
2021/11/13 04:24:54;;;;;;;25.17;23.20;;;;;;;;;;5054018;28;20440;-89
2021/11/13 04:27:21;;;;;;;25.27;23.50;;;;;;;;;;5054648;28;20192;-89
2021/11/13 04:29:49;;;;;;;24.73;22.90;;;;;;;;;;5054522;28;20446;-89
2021/11/13 04:32:17;;;;;;;25.20;23.50;;;;;;;;;;5054414;28;20194;-89
2021/11/13 04:34:49;;;;;;;24.70;23.10;;;;;;;;;;5056453;28;20442;-90
2021/11/13 04:37:18;;;;;;;24.00;22.43;;;;;;;;;;5054720;28;20752;-89
2021/11/13 04:39:48;;;;;;;24.67;22.92;;;;;;;;;;5059221;28;20441;-89
2021/11/13 04:42:15;;;;;;;24.98;23.02;;;;;;;;;;5055913;28;20746;-92
2021/11/13 04:44:43;;;;;;;25.42;23.75;;;;;;;;;;5055078;28;20192;-92
2021/11/13 04:47:11;;;;;;;25.60;23.70;;;;;;;;;;5036649;28;20192;-91
2021/11/13 04:49:38;;;;;;;25.15;23.25;;;;;;;;;;5054478;28;20255;-89
2021/11/13 04:52:07;;;;;;;25.23;23.23;;;;;;;;;;5037419;28;20185;-90
2021/11/13 04:54:34;;;;;;;25.75;23.63;;;;;;;;;;5054912;28;20218;-90
2021/11/13 04:57:03;;;;;;;25.80;23.77;;;;;;;;;;5055228;28;20192;-89
2021/11/13 04:59:30;;;;;;;25.40;23.58;;;;;;;;;;5059278;28;20450;-90
2021/11/13 05:01:57;;;;;;;25.57;23.77;;;;;;;;;;5065939;28;20220;-90
2021/11/13 05:04:25;;;;;;;25.93;23.97;;;;;;;;;;5041359;28;20457;-89
2021/11/13 05:06:52;;;;;;;22.90;21.40;;;;;;;;;;5064259;28;20438;-90
2021/11/13 05:09:20;;;;;;;26.42;24.52;;;;;;;;;;5039733;28;20225;-90
2021/11/13 05:11:47;;;;;;;25.90;23.90;;;;;;;;;;5037659;28;20261;-90
2021/11/13 05:14:16;;;;;;;23.85;22.20;;;;;;;;;;5055408;28;20453;-90
2021/11/13 05:16:43;;;;;;;24.63;22.87;;;;;;;;;;5054875;28;20223;-89
2021/11/13 05:19:11;;;;;;;25.77;23.47;;;;;;;;;;5058325;28;20466;-89
2021/11/13 05:21:39;;;;;;;27.27;25.07;;;;;;;;;;5057189;28;20497;-90
2021/11/13 05:24:06;;;;;;;24.27;22.47;;;;;;;;;;5057244;28;20432;-90
2021/11/13 05:26:34;;;;;;;26.77;24.33;;;;;;;;;;5039518;28;20446;-90
2021/11/13 05:29:01;;;;;;;24.30;22.50;;;;;;;;;;5056205;28;20930;-90
2021/11/13 05:31:30;;;;;;;25.17;23.27;;;;;;;;;;5056703;28;20823;-89
2021/11/13 05:33:57;;;;;;;26.98;24.92;;;;;;;;;;5056326;28;20436;-89
2021/11/13 05:36:25;;;;;;;25.27;23.03;;;;;;;;;;5056124;28;20207;-90
2021/11/13 05:38:52;;;;;;;24.95;23.25;;;;;;;;;;5056341;28;20458;-90
2021/11/13 05:41:19;;;;;;;24.80;22.93;;;;;;;;;;5056468;28;20228;-90
2021/11/13 05:43:47;;;;;;;26.42;24.15;;;;;;;;;;5056178;28;20420;-90
2021/11/13 05:46:15;;;;;;;25.50;23.42;;;;;;;;;;5038592;28;20203;-92
2021/11/13 05:48:45;;;;;;;26.80;24.70;;;;;;;;;;5056042;28;20242;-89
2021/11/13 05:51:12;;;;;;;25.50;23.50;;;;;;;;;;5038574;28;20785;-89
2021/11/13 05:53:40;;;;;;;24.93;23.07;;;;;;;;;;5056173;28;20215;-89
2021/11/13 05:56:07;;;;;;;27.83;25.47;;;;;;;;;;5056294;28;20464;-89
2021/11/13 05:58:34;;;;;;;25.30;23.48;;;;;;;;;;5056049;28;20446;-90
2021/11/13 06:01:02;;;;;;;25.43;23.13;;;;;;;;;;5056535;28;20265;-89
2021/11/13 06:03:29;;;;;;;26.45;24.42;;;;;;;;;;5056416;28;20417;-90
2021/11/13 06:05:58;;;;;;;28.23;26.13;;;;;;;;;;5055999;28;20192;-88
2021/11/13 06:08:25;;;;;;;24.98;22.77;;;;;;;;;;5055737;28;20203;-87
2021/11/13 06:10:53;;;;;;;27.83;25.50;;;;;;;;;;5055355;28;20203;-88
2021/11/13 06:13:20;;;;;;;26.57;24.47;;;;;;;;;;5055516;28;20196;-88
2021/11/13 06:15:48;;;;;;;25.55;23.58;;;;;;;;;;5055106;28;20794;-88
2021/11/13 06:18:15;;;;;;;25.93;23.63;;;;;;;;;;5055605;28;20208;-88
2021/11/13 06:20:42;;;;;;;25.93;23.90;;;;;;;;;;5055604;28;20469;-88
2021/11/13 06:23:11;;;;;;;26.67;24.47;;;;;;;;;;5055446;28;20431;-87
2021/11/13 06:25:39;;;;;;;26.00;23.88;;;;;;;;;;5055181;28;20417;-88
2021/11/13 06:28:06;;;;;;;26.40;24.50;;;;;;;;;;5055333;28;20622;-87
2021/11/13 06:30:34;;;;;;;26.10;24.10;;;;;;;;;;5055218;28;20217;-87
2021/11/13 06:33:01;;;;;;;27.50;25.20;;;;;;;;;;5055464;28;20196;-89
2021/11/13 06:35:28;;;;;;;25.23;23.30;;;;;;;;;;5055136;28;20413;-89
2021/11/13 06:37:56;;;;;;;28.47;25.67;;;;;;;;;;5055101;28;20656;-90
2021/11/13 06:40:25;;;;;;;27.20;24.70;;;;;;;;;;5055353;28;20457;-91
2021/11/13 06:42:52;;;;;;;26.70;24.50;;;;;;;;;;5055247;28;20460;-90
2021/11/13 06:45:20;;;;;;;27.20;25.05;;;;;;;;;;5055120;28;20458;-89
2021/11/13 06:47:47;;;;;;;29.98;27.52;;;;;;;;;;5054760;28;20254;-90
2021/11/13 06:50:15;;;;;;;31.05;28.15;;;;;;;;;;5054640;28;20250;-88
2021/11/13 06:52:42;;;;;;;29.23;26.48;;;;;;;;;;5054604;28;20229;-88
2021/11/13 06:55:10;;;;;;;30.92;28.42;;;;;;;;;;5054774;28;20196;-87
2021/11/13 06:57:39;;;;;;;27.53;25.33;;;;;;;;;;5054676;28;20204;-88
2021/11/13 07:00:08;;;;;;;27.80;25.45;;;;;;;;;;5036763;28;20842;-88
2021/11/13 07:02:35;;;;;;;27.50;25.40;;;;;;;;;;5054526;28;20233;-89
2021/11/13 07:05:02;;;;;;;28.80;26.45;;;;;;;;;;5054926;28;20207;-85
2021/11/13 07:07:32;;;;;;;26.85;24.65;;;;;;;;;;5054990;28;20199;-88
2021/11/13 07:10:00;;;;;;;30.00;27.15;;;;;;;;;;5054443;28;20210;-89
2021/11/13 07:12:28;;;;;;;28.90;26.42;;;;;;;;;;5054800;28;20195;-89
2021/11/13 07:14:56;;;;;;;28.27;25.42;;;;;;;;;;5054678;28;20207;-88
2021/11/13 07:17:24;;;;;;;29.30;26.60;;;;;;;;;;5054424;28;20242;-88
2021/11/13 07:19:51;;;;;;;29.60;27.17;;;;;;;;;;5055018;28;20203;-90
2021/11/13 07:22:19;;;;;;;30.15;27.60;;;;;;;;;;5054524;28;20220;-90
2021/11/13 07:24:46;;;;;;;30.00;27.05;;;;;;;;;;5055257;28;20551;-92
2021/11/13 07:27:15;;;;;;;27.37;24.87;;;;;;;;;;5055419;28;20200;-92
2021/11/13 07:29:46;;;;;;;28.65;26.25;;;;;;;;;;5036725;28;20434;-93
2021/11/13 07:32:17;;;;;;;26.77;24.42;;;;;;;;;;5054209;28;20192;-93
2021/11/13 07:34:44;;;;;;;29.58;26.67;;;;;;;;;;5054515;28;20190;-92
2021/11/13 07:37:12;;;;;;;27.55;25.10;;;;;;;;;;5054188;28;20207;-91
2021/11/13 07:39:39;;;;;;;30.90;27.05;;;;;;;;;;5053839;28;20610;-89
2021/11/13 07:42:07;;;;;;;25.80;23.65;;;;;;;;;;5053871;28;20237;-91
2021/11/13 07:44:34;;;;;;;30.55;27.65;;;;;;;;;;5054453;28;20211;-92
2021/11/13 07:47:02;;;;;;;27.25;24.85;;;;;;;;;;5054045;28;20615;-91
2021/11/13 07:49:31;;;;;;;28.07;25.80;;;;;;;;;;5053798;28;20235;-90
2021/11/13 07:51:58;;;;;;;29.67;26.70;;;;;;;;;;5053972;28;20442;-89
2021/11/13 07:54:25;;;;;;;29.40;27.03;;;;;;;;;;5053912;28;20210;-90
2021/11/13 07:56:53;;;;;;;27.67;25.48;;;;;;;;;;5053845;28;20455;-90
2021/11/13 07:59:20;;;;;;;30.25;27.27;;;;;;;;;;5053750;28;20294;-90
2021/11/13 08:01:48;;;;;;;30.27;27.45;;;;;;;;;;5053626;28;20229;-91
2021/11/13 08:04:15;;;;;;;30.30;27.85;;;;;;;;;;5053839;28;20211;-91
2021/11/13 08:06:44;;;;;;;29.52;26.77;;;;;;;;;;5053804;28;20202;-91
2021/11/13 08:09:11;;;;;;;27.80;25.55;;;;;;;;;;5054194;28;20191;-90
2021/11/13 08:11:39;;;;;;;26.13;23.63;;;;;;;;;;5053838;28;20235;-90
2021/11/13 08:14:06;;;;;;;29.77;27.23;;;;;;;;;;5053746;28;20202;-90
2021/11/13 08:16:35;;;;;;;22.73;21.13;;;;;;;;;;5053355;28;20233;-90
2021/11/13 08:19:02;;;;;;;29.10;26.52;;;;;;;;;;5054369;28;20209;-91
2021/11/13 08:21:30;;;;;;;26.73;24.60;;;;;;;;;;5053481;28;20226;-90
2021/11/13 08:23:59;;;;;;;26.80;24.48;;;;;;;;;;5019509;28;20207;-89
2021/11/13 08:26:26;;;;;;;28.27;25.85;;;;;;;;;;5053670;28;20224;-89
2021/11/13 08:28:54;;;;;;;28.25;26.15;;;;;;;;;;5053296;28;20307;-89
2021/11/13 08:31:21;;;;;;;30.10;27.20;;;;;;;;;;5053475;28;20196;-90
2021/11/13 08:33:49;;;;;;;29.80;27.08;;;;;;;;;;5035605;28;20425;-89
2021/11/13 08:36:16;;;;;;;29.77;27.05;;;;;;;;;;5053571;28;20641;-90
2021/11/13 08:38:43;;;;;;;30.35;27.42;;;;;;;;;;5053414;28;20700;-90
2021/11/13 08:41:12;;;;;;;31.63;28.90;;;;;;;;;;5053230;28;20210;-90
2021/11/13 08:43:39;;;;;;;27.65;25.45;;;;;;;;;;5053194;28;20298;-90
2021/11/13 08:46:07;;;;;;;29.65;27.02;;;;;;;;;;5053467;28;20546;-90
2021/11/13 08:48:34;;;;;;;27.50;25.27;;;;;;;;;;5053131;28;20199;-88
2021/11/13 08:51:02;;;;;;;24.65;22.73;;;;;;;;;;5035192;28;20280;-88
2021/11/13 08:53:29;;;;;;;27.42;25.10;;;;;;;;;;5056240;28;20198;-88
2021/11/13 08:55:57;;;;;;;29.75;27.05;;;;;;;;;;5023035;28;20227;-88
2021/11/13 08:58:26;;;;;;;27.48;25.17;;;;;;;;;;5056741;28;20214;-88
2021/11/13 09:00:55;;;;;;;25.40;23.25;;;;;;;;;;5057059;28;20203;-86
2021/11/13 09:03:23;;;;;;;28.25;25.92;;;;;;;;;;5056305;28;20234;-87
2021/11/13 09:05:51;;;;;;;30.50;27.48;;;;;;;;;;5056678;28;20195;-87
2021/11/13 09:08:19;;;;;;;28.63;25.95;;;;;;;;;;5056968;28;20197;-87
2021/11/13 09:10:48;;;;;;;28.17;25.60;;;;;;;;;;5039006;28;20200;-88
2021/11/13 09:13:16;;;;;;;27.50;25.40;;;;;;;;;;5056422;28;20636;-88
2021/11/13 09:15:45;;;;;;;22.23;20.92;;;;;;;;;;5056712;28;20590;-87
2021/11/13 09:18:13;;;;;;;26.80;24.30;;;;;;;;;;5056779;28;20190;-88
2021/11/13 09:20:41;;;;;;;28.80;26.58;;;;;;;;;;5039397;28;20926;-87
2021/11/13 09:23:09;;;;;;;28.23;25.48;;;;;;;;;;5056750;28;20225;-88
2021/11/13 09:25:36;;;;;;;28.08;25.77;;;;;;;;;;5056648;28;20208;-89
2021/11/13 09:28:04;;;;;;;25.17;23.08;;;;;;;;;;5056288;28;20197;-88
2021/11/13 09:30:33;;;;;;;28.05;25.83;;;;;;;;;;5056587;28;20194;-89
2021/11/13 09:33:02;;;;;;;29.13;26.50;;;;;;;;;;5038886;28;20196;-89
2021/11/13 09:35:30;;;;;;;27.50;25.15;;;;;;;;;;5056184;28;20195;-88
2021/11/13 09:37:58;;;;;;;26.58;24.48;;;;;;;;;;5056383;28;20529;-86
2021/11/13 09:40:26;;;;;;;32.17;25.80;;;;;;;;;;5038212;28;20215;-87
2021/11/13 09:42:57;;;;;;;26.67;24.63;;;;;;;;;;5056147;28;20220;-88
2021/11/13 09:45:24;;;;;;;23.67;21.80;;;;;;;;;;5056040;28;20192;-87
2021/11/13 09:47:53;;;;;;;27.25;25.13;;;;;;;;;;5055831;28;20559;-87
2021/11/13 09:50:23;;;;;;;27.33;25.13;;;;;;;;;;5055714;28;20242;-86
2021/11/13 09:52:51;;;;;;;27.80;25.60;;;;;;;;;;5056132;28;20523;-87
2021/11/13 09:55:19;;;;;;;28.42;24.60;;;;;;;;;;5055962;28;20591;-87
2021/11/13 09:57:47;;;;;;;26.98;24.88;;;;;;;;;;5056027;28;20195;-87
2021/11/13 10:00:17;;;;;;;26.95;24.55;;;;;;;;;;5037989;28;20208;-87
2021/11/13 10:02:44;;;;;;;26.55;24.27;;;;;;;;;;5055531;28;20223;-88
2021/11/13 10:05:12;;;;;;;26.17;24.13;;;;;;;;;;5055972;28;20200;-87
2021/11/13 10:07:41;;;;;;;29.40;26.55;;;;;;;;;;5055637;28;20199;-86
2021/11/13 10:10:10;;;;;;;26.30;24.20;;;;;;;;;;5055348;28;20282;-87
2021/11/13 10:12:39;;;;;;;26.30;24.10;;;;;;;;;;5055768;28;20237;-88
2021/11/13 10:15:21;;;;;;;26.98;24.77;;;;;;;;;;5055384;28;20467;-87
2021/11/13 10:18:05;;;;;;;27.23;24.90;;;;;;;;;;5054871;28;20254;-86
2021/11/13 10:20:32;;;;;;;27.58;25.55;;;;;;;;;;5055300;28;20466;-88
2021/11/13 10:23:01;;;;;;;28.20;25.95;;;;;;;;;;5055292;28;20215;-87
2021/11/13 10:25:29;;;;;;;28.67;26.48;;;;;;;;;;5055190;28;20203;-87
2021/11/13 10:28:12;;;;;;;27.73;25.63;;;;;;;;;;5055166;28;20194;-86
2021/11/13 10:30:40;;;;;;;27.17;25.17;;;;;;;;;;5055483;28;20202;-87
2021/11/13 10:33:08;;;;;;;28.40;26.03;;;;;;;;;;5055322;28;20556;-88
2021/11/13 10:35:50;;;;;;;28.40;26.00;;;;;;;;;;5055346;28;20429;-87
2021/11/13 10:38:20;;;;;;;26.30;24.27;;;;;;;;;;5055313;28;20195;-87
2021/11/13 10:40:52;;;;;;;28.40;26.08;;;;;;;;;;5055329;28;20201;-87
2021/11/13 10:43:19;;;;;;;27.15;24.98;;;;;;;;;;5055691;28;20231;-84
2021/11/13 10:45:57;;;;;;;23.67;22.03;;;;;;;;;;5047095;28;20532;-96
2021/11/13 10:48:25;;;;;;;26.63;24.52;;;;;;;;;;5036606;28;20514;-88
2021/11/13 10:50:52;;;;;;;27.33;25.23;;;;;;;;;;5035129;28;20234;-88
2021/11/13 10:53:27;;;;;;;27.07;24.80;;;;;;;;;;5034936;28;20193;-88
2021/11/13 10:56:10;;;;;;;24.90;22.80;;;;;;;;;;5035326;28;20438;-89
2021/11/13 10:58:38;;;;;;;25.50;23.70;;;;;;;;;;5017217;28;20203;-87
2021/11/13 11:01:08;;;;;;;28.57;25.27;;;;;;;;;;5017203;28;20857;-87
2021/11/13 11:03:40;;;;;;;24.97;23.00;;;;;;;;;;5034503;28;21015;-88
2021/11/13 11:06:07;;;;;;;26.23;24.13;;;;;;;;;;5034790;28;20456;-87
2021/11/13 11:08:37;;;;;;;25.80;23.80;;;;;;;;;;5034859;28;20664;-87
2021/11/13 11:11:24;;;;;;;26.23;24.10;;;;;;;;;;5034721;28;20451;-87
2021/11/13 11:13:52;;;;;;;26.48;24.55;;;;;;;;;;5034533;28;20421;-87
2021/11/13 11:16:30;;;;;;;24.90;22.90;;;;;;;;;;5015930;28;20723;-87
2021/11/13 11:19:01;;;;;;;27.20;25.20;;;;;;;;;;5034699;28;20443;-87
2021/11/13 11:21:38;;;;;;;25.97;24.07;;;;;;;;;;5016637;28;20425;-87
2021/11/13 11:24:12;;;;;;;25.70;23.80;;;;;;;;;;5034470;28;20879;-86
2021/11/13 11:26:40;;;;;;;26.77;24.67;;;;;;;;;;5034473;28;20416;-87
2021/11/13 11:29:08;;;;;;;26.02;24.23;;;;;;;;;;5023744;28;20976;-87
2021/11/13 11:31:42;;;;;;;25.17;23.37;;;;;;;;;;5054186;28;20198;-86
2021/11/13 11:34:19;;;;;;;27.17;24.80;;;;;;;;;;5036261;28;20454;-86
2021/11/13 11:36:46;;;;;;;25.13;23.20;;;;;;;;;;5036464;28;20462;-87
2021/11/13 11:39:16;;;;;;;26.83;24.67;;;;;;;;;;5053785;28;20438;-87
2021/11/13 11:41:43;;;;;;;26.87;24.77;;;;;;;;;;5053820;28;20443;-86
2021/11/13 11:44:12;;;;;;;26.20;24.30;;;;;;;;;;5054069;28;20832;-85
2021/11/13 11:46:39;;;;;;;28.75;26.40;;;;;;;;;;5053729;28;20438;-86
2021/11/13 11:49:07;;;;;;;29.00;26.70;;;;;;;;;;5053723;28;20626;-86
2021/11/13 11:51:34;;;;;;;27.33;25.13;;;;;;;;;;5053990;28;20453;-86
2021/11/13 11:54:05;;;;;;;28.40;25.95;;;;;;;;;;5053709;28;20465;-86
2021/11/13 11:56:34;;;;;;;27.67;25.63;;;;;;;;;;5053602;28;20222;-86
2021/11/13 11:59:02;;;;;;;28.30;25.90;;;;;;;;;;5053541;28;20964;-87
2021/11/13 12:01:30;;;;;;;27.83;25.50;;;;;;;;;;5053562;28;20424;-86
2021/11/13 12:04:10;;;;;;;23.40;21.70;;;;;;;;;;5053375;28;20548;-86
2021/11/13 12:06:44;;;;;;;25.57;23.53;;;;;;;;;;5053525;28;20445;-86
2021/11/13 12:09:11;;;;;;;27.27;24.83;;;;;;;;;;5053324;28;20424;-87
2021/11/13 12:11:42;;;;;;;23.37;21.87;;;;;;;;;;5053336;28;20471;-87
2021/11/13 12:14:23;;;;;;;25.67;23.33;;;;;;;;;;5053246;28;21028;-86
2021/11/13 12:16:51;;;;;;;24.90;22.90;;;;;;;;;;5053204;28;20442;-86
2021/11/13 12:19:18;;;;;;;27.15;25.05;;;;;;;;;;5053794;28;20421;-87
2021/11/13 12:21:53;;;;;;;26.37;24.57;;;;;;;;;;5053610;28;20602;-86
2021/11/13 12:24:20;;;;;;;25.73;23.60;;;;;;;;;;5053124;28;20496;-85
2021/11/13 12:27:01;;;;;;;27.97;25.87;;;;;;;;;;5055340;28;20880;-87
2021/11/13 12:29:29;;;;;;;29.50;27.40;;;;;;;;;;5057639;28;20434;-86
2021/11/13 12:31:57;;;;;;;28.37;26.10;;;;;;;;;;5039353;28;20447;-84
2021/11/13 12:34:29;;;;;;;29.13;26.80;;;;;;;;;;5056656;28;20495;-84
2021/11/13 12:37:00;;;;;;;33.87;31.17;;;;;;;;;;5056882;28;20459;-88
2021/11/13 12:39:28;;;;;;;28.40;26.10;;;;;;;;;;5057139;28;20423;-86
2021/11/13 12:42:13;;;;;;;30.50;28.20;;;;;;;;;;5057115;28;20898;-85
2021/11/13 12:44:44;;;;;;;26.90;24.80;;;;;;;;;;5056345;28;21000;-86
2021/11/13 12:47:21;;;;;;;27.87;25.57;;;;;;;;;;5056708;28;20945;-86
2021/11/13 12:49:50;;;;;;;26.50;24.27;;;;;;;;;;5056727;28;20484;-89
2021/11/13 12:52:22;;;;;;;31.43;28.93;;;;;;;;;;5057031;28;20417;-88
2021/11/13 12:55:01;;;;;;;23.87;22.27;;;;;;;;;;5057051;28;20455;-88
2021/11/13 12:57:32;;;;;;;24.87;23.00;;;;;;;;;;5057100;28;20501;-88
2021/11/13 13:00:03;;;;;;;29.73;27.40;;;;;;;;;;5056514;28;20483;-89
2021/11/13 13:02:32;;;;;;;25.80;24.00;;;;;;;;;;5056742;28;20458;-88
2021/11/13 13:05:00;;;;;;;33.97;31.30;;;;;;;;;;5039201;28;20464;-88
2021/11/13 13:07:27;;;;;;;25.70;23.63;;;;;;;;;;5056685;28;20442;-89
2021/11/13 13:09:56;;;;;;;27.47;25.03;;;;;;;;;;5056782;28;20814;-89
2021/11/13 13:12:24;;;;;;;27.90;25.80;;;;;;;;;;5057093;28;20413;-89
2021/11/13 13:14:56;;;;;;;30.90;28.60;;;;;;;;;;5057019;28;20484;-88
2021/11/13 13:17:27;;;;;;;24.60;22.93;;;;;;;;;;5056445;28;20419;-88
2021/11/13 13:19:54;;;;;;;26.50;24.60;;;;;;;;;;5056712;28;20432;-88
2021/11/13 13:22:22;;;;;;;26.03;23.83;;;;;;;;;;5056466;28;20413;-87
2021/11/13 13:24:51;;;;;;;26.23;24.10;;;;;;;;;;5056477;28;21300;-88
2021/11/13 13:27:19;;;;;;;25.57;23.80;;;;;;;;;;5056817;28;20428;-88
2021/11/13 13:29:48;;;;;;;27.40;25.60;;;;;;;;;;5057077;28;20504;-88
2021/11/13 13:32:16;;;;;;;27.13;25.23;;;;;;;;;;5056878;28;20541;-88
2021/11/13 13:35:06;;;;;;;28.67;26.50;;;;;;;;;;5056227;28;20434;-88
2021/11/13 13:37:48;;;;;;;32.27;29.60;;;;;;;;;;5055756;28;20434;-88
2021/11/13 13:40:21;;;;;;;29.37;26.87;;;;;;;;;;5038378;28;20453;-88
2021/11/13 13:42:48;;;;;;;27.73;25.73;;;;;;;;;;5039065;28;20473;-88
2021/11/13 13:45:15;;;;;;;27.67;25.67;;;;;;;;;;5056195;28;20516;-88
2021/11/13 13:47:45;;;;;;;26.07;24.10;;;;;;;;;;5055804;28;20962;-87
2021/11/13 13:50:14;;;;;;;24.23;22.53;;;;;;;;;;5055670;28;20988;-88
2021/11/13 13:52:44;;;;;;;27.10;25.07;;;;;;;;;;5056152;28;20419;-87
2021/11/13 13:55:13;;;;;;;25.07;23.37;;;;;;;;;;5056125;28;20931;-88
2021/11/13 13:57:40;;;;;;;26.70;24.83;;;;;;;;;;5055619;28;20867;-88
2021/11/13 14:00:10;;;;;;;28.90;26.27;;;;;;;;;;5055384;28;20802;-88
2021/11/13 14:02:40;;;;;;;27.07;25.00;;;;;;;;;;5055621;28;20433;-88
2021/11/13 14:05:09;;;;;;;27.27;25.37;;;;;;;;;;5055838;28;20840;-89
2021/11/13 14:07:38;;;;;;;30.03;27.47;;;;;;;;;;5055869;28;20425;-88
2021/11/13 14:10:10;;;;;;;29.38;26.90;;;;;;;;;;5056067;28;20450;-89
2021/11/13 14:12:41;;;;;;;27.83;25.40;;;;;;;;;;5055524;28;20232;-84
2021/11/13 14:15:10;;;;;;;27.10;25.03;;;;;;;;;;5037845;28;20877;-90
2021/11/13 14:17:37;;;;;;;27.40;24.90;;;;;;;;;;5055468;28;20560;-90
2021/11/13 14:20:11;;;;;;;25.37;23.53;;;;;;;;;;5037703;28;20450;-89
2021/11/13 14:22:46;;;;;;;23.00;21.60;;;;;;;;;;5055448;28;20427;-89
2021/11/13 14:25:13;;;;;;;24.63;23.00;;;;;;;;;;5055185;28;20481;-89